Time;durP1;ratioP1;P1;durP2;ratioP2;P2;SDS_P1;SDS_P2;PMS_P1;PMS_P2;Temp;Humidity;BMP_temperature;BMP_pressure;BME280_temperature;BME280_humidity;BME280_pressure;Samples;Min_cycle;Max_cycle;Signal;HPM_P1;HPM_P2
2022/02/11 00:04:39;;;;;;;10.68;5.35;;;5.60;99.90;;;;;;5093692;28;20051;-73
2022/02/11 00:06:57;;;;;;;16.30;14.50;;;5.30;99.90;;;;;;5093494;28;20443;-73
2022/02/11 00:09:22;;;;;;;9.00;5.70;;;5.30;99.90;;;;;;5094026;28;20488;-73
2022/02/11 00:11:49;;;;;;;11.43;5.90;;;5.20;99.90;;;;;;5092313;28;20059;-73
2022/02/11 00:14:14;;;;;;;10.43;5.43;;;5.30;99.90;;;;;;5093598;28;20012;-73
2022/02/11 00:16:40;;;;;;;15.00;6.10;;;5.30;99.90;;;;;;5093877;28;20415;-73
2022/02/11 00:19:07;;;;;;;11.43;5.47;;;5.40;99.90;;;;;;5094119;28;20028;-73
2022/02/11 00:21:33;;;;;;;9.00;5.32;;;5.50;99.90;;;;;;5093478;28;20062;-73
2022/02/11 00:24:00;;;;;;;11.43;6.57;;;5.60;99.90;;;;;;5093724;28;20020;-73
2022/02/11 00:26:31;;;;;;;10.30;6.10;;;5.40;99.90;;;;;;5093351;28;20123;-73
2022/02/11 00:31:57;;;;;;;12.88;5.88;;;5.30;99.90;;;;;;5093960;28;20028;-72
2022/02/11 00:34:31;;;;;;;11.30;6.00;;;5.40;99.90;;;;;;5093635;28;20027;-73
2022/02/11 00:37:09;;;;;;;10.90;5.68;;;5.50;99.90;;;;;;5093615;28;20107;-73
2022/02/11 01:06:08;;;;;;;9.15;5.03;;;5.70;99.90;;;;;;5097032;28;20027;-73
2022/02/11 01:08:34;;;;;;;10.68;5.85;;;5.60;99.90;;;;;;5097371;28;20020;-73
2022/02/11 01:11:01;;;;;;;9.68;5.97;;;5.50;99.90;;;;;;5097070;28;20020;-73
2022/02/11 01:13:27;;;;;;;11.45;6.00;;;5.40;99.90;;;;;;5096970;28;20024;-72
2022/02/11 01:16:01;;;;;;;13.63;6.30;;;5.20;99.90;;;;;;5097216;28;20374;-73
2022/02/11 01:18:27;;;;;;;13.77;7.28;;;5.20;99.90;;;;;;5097462;28;20021;-73
2022/02/11 01:21:04;;;;;;;16.33;8.48;;;5.10;99.90;;;;;;5097369;28;20035;-73
2022/02/11 01:23:58;;;;;;;16.55;8.88;;;5.00;99.90;;;;;;5095276;28;20110;-72
2022/02/11 01:26:39;;;;;;;15.27;8.98;;;4.80;99.90;;;;;;5095190;28;20034;-72
2022/02/11 01:35:07;;;;;;;29.65;14.60;;;4.60;99.90;;;;;;5075243;28;20028;-73
2022/02/11 01:38:21;;;;;;;18.20;7.72;;;4.60;99.90;;;;;;5094987;28;20028;-72
2022/02/11 01:41:29;;;;;;;18.50;9.60;;;4.50;99.90;;;;;;5095057;28;20032;-72
2022/02/11 02:16:02;;;;;;;9.20;4.50;;;5.00;99.90;;;;;;5096096;28;20030;-73
2022/02/11 02:50:46;;;;;;;10.43;4.53;;;4.90;99.90;;;;;;5095413;28;20504;-73
2022/02/11 02:58:46;;;;;;;8.95;5.45;;;4.90;99.90;;;;;;5095291;28;20031;-73
2022/02/11 03:15:19;;;;;;;10.50;5.13;;;4.60;99.90;;;;;;5094964;28;20066;-72
2022/02/11 03:50:59;;;;;;;9.00;4.55;;;4.70;99.90;;;;;;5094292;28;20035;-72
2022/02/11 03:59:26;;;;;;;;;;;4.50;99.90;;;;;;5094065;28;20074;-73
2022/02/11 04:25:30;;;;;;;9.63;4.35;;;4.20;99.90;;;;;;5093756;28;20031;-72
2022/02/11 04:56:21;;;;;;;8.30;3.65;;;4.30;99.90;;;;;;5092922;28;20074;-72
2022/02/11 05:01:30;;;;;;;3.97;2.72;;;4.10;99.90;;;;;;5093183;28;20123;-72
2022/02/11 05:03:56;;;;;;;8.27;3.22;;;4.10;99.90;;;;;;5093012;28;20083;-73
2022/02/11 05:06:23;;;;;;;9.30;3.38;;;3.90;99.90;;;;;;5093017;28;20028;-73
2022/02/11 05:08:49;;;;;;;6.43;3.10;;;3.80;99.90;;;;;;5093063;28;20008;-72
2022/02/11 05:11:15;;;;;;;7.00;3.30;;;3.80;99.90;;;;;;5093003;28;20031;-73
2022/02/11 05:13:41;;;;;;;6.45;3.28;;;3.80;99.90;;;;;;5092964;28;20534;-73
2022/02/11 05:16:06;;;;;;;6.90;3.70;;;3.90;99.90;;;;;;5093492;28;20036;-72
2022/02/11 05:18:32;;;;;;;6.80;3.10;;;3.90;99.90;;;;;;5092930;28;20021;-73
2022/02/11 05:20:58;;;;;;;5.90;3.58;;;3.80;99.90;;;;;;5093508;28;20028;-73
2022/02/11 05:23:24;;;;;;;9.82;3.35;;;3.90;99.90;;;;;;5092885;28;20028;-72
2022/02/11 05:25:50;;;;;;;9.18;3.90;;;4.10;99.90;;;;;;5092840;28;20020;-73
2022/02/11 05:28:15;;;;;;;7.53;3.35;;;4.10;99.90;;;;;;5091609;28;20394;-73
2022/02/11 05:30:42;;;;;;;7.97;2.90;;;3.90;99.90;;;;;;5092833;28;20485;-72
2022/02/11 05:33:09;;;;;;;9.25;3.70;;;3.70;99.90;;;;;;5092843;28;20389;-72
2022/02/11 05:35:36;;;;;;;5.65;3.25;;;3.50;99.90;;;;;;5092829;28;20016;-73
2022/02/11 05:38:02;;;;;;;9.30;2.90;;;3.60;99.90;;;;;;5092609;28;20026;-72
2022/02/11 05:40:28;;;;;;;8.00;3.30;;;3.50;99.90;;;;;;5093957;28;20024;-73
2022/02/11 05:42:53;;;;;;;8.02;3.03;;;3.60;99.90;;;;;;5096729;28;20029;-72
2022/02/11 05:45:19;;;;;;;8.23;3.20;;;3.80;99.90;;;;;;5096394;28;20028;-73
2022/02/11 05:47:45;;;;;;;7.28;3.28;;;3.90;99.90;;;;;;5096235;28;20107;-72
2022/02/11 05:50:11;;;;;;;6.43;3.30;;;3.80;99.90;;;;;;5096866;28;20108;-72
2022/02/11 05:52:37;;;;;;;7.68;2.97;;;3.60;99.90;;;;;;5096261;28;20027;-73
2022/02/11 05:55:04;;;;;;;5.90;3.15;;;3.30;99.90;;;;;;5096162;28;20400;-72
2022/02/11 05:57:29;;;;;;;7.05;2.97;;;3.30;99.90;;;;;;5096183;28;20050;-73
2022/02/11 05:59:56;;;;;;;5.90;3.22;;;3.30;99.90;;;;;;5096169;28;20101;-73
2022/02/11 06:02:22;;;;;;;5.97;2.90;;;3.30;99.90;;;;;;5096158;28;20504;-73
2022/02/11 06:04:48;;;;;;;5.97;2.63;;;3.40;99.90;;;;;;5094343;28;20048;-73
2022/02/11 06:07:14;;;;;;;5.75;2.97;;;3.30;99.90;;;;;;5095937;28;20484;-73
2022/02/11 06:09:40;;;;;;;8.23;3.03;;;3.20;99.90;;;;;;5095972;28;20031;-72
2022/02/11 06:12:08;;;;;;;11.43;4.25;;;3.00;99.90;;;;;;5096061;28;20071;-72
2022/02/11 06:14:38;;;;;;;264.25;126.43;;;3.00;99.90;;;;;;5096171;28;20024;-72
2022/02/11 06:17:05;;;;;;;24.17;12.25;;;3.20;99.90;;;;;;5095820;28;20031;-73
2022/02/11 06:19:30;;;;;;;13.20;5.10;;;3.30;99.90;;;;;;5095800;28;20024;-72
2022/02/11 06:21:56;;;;;;;7.28;3.22;;;3.40;99.90;;;;;;5096030;28;20038;-73
2022/02/11 06:24:22;;;;;;;6.72;3.00;;;3.40;99.90;;;;;;5095659;28;20055;-72
2022/02/11 06:26:47;;;;;;;8.60;3.30;;;3.50;99.90;;;;;;5095511;28;20032;-72
2022/02/11 06:29:13;;;;;;;8.30;3.50;;;3.60;99.90;;;;;;5095586;28;20103;-73
2022/02/11 06:31:39;;;;;;;11.70;4.60;;;3.60;99.90;;;;;;5095566;28;20056;-72
2022/02/11 06:34:06;;;;;;;10.90;4.55;;;3.60;99.90;;;;;;5095458;28;20020;-72
2022/02/11 06:36:32;;;;;;;5.32;3.00;;;3.60;99.90;;;;;;5095729;28;20102;-72
2022/02/11 06:38:58;;;;;;;7.18;3.40;;;3.50;99.90;;;;;;5095421;28;20072;-72
2022/02/11 06:41:24;;;;;;;7.68;3.72;;;3.50;99.90;;;;;;5095375;28;20392;-72
2022/02/11 06:43:49;;;;;;;7.72;3.75;;;3.50;99.90;;;;;;5095563;28;20028;-72
2022/02/11 06:46:17;;;;;;;10.65;3.97;;;3.70;99.90;;;;;;5095212;28;20028;-73
2022/02/11 06:48:44;;;;;;;5.95;3.33;;;3.80;99.90;;;;;;5095501;28;20491;-72
2022/02/11 06:51:10;;;;;;;14.15;7.45;;;3.70;99.90;;;;;;5094922;28;20020;-72
2022/02/11 06:53:36;;;;;;;13.25;7.60;;;3.60;99.90;;;;;;5094292;28;20020;-73
2022/02/11 06:56:03;;;;;;;12.73;5.38;;;3.70;99.90;;;;;;5095272;28;20039;-72
2022/02/11 06:58:29;;;;;;;13.60;5.68;;;3.50;99.90;;;;;;5095011;28;20016;-73
2022/02/11 07:00:55;;;;;;;9.77;5.72;;;3.60;99.90;;;;;;5095004;28;20474;-73
2022/02/11 07:03:23;;;;;;;11.40;5.72;;;3.60;99.90;;;;;;5095131;28;20075;-73
2022/02/11 07:05:51;;;;;;;10.63;6.13;;;3.70;99.90;;;;;;5094789;28;20464;-73
2022/02/11 07:08:17;;;;;;;12.38;6.00;;;3.70;99.90;;;;;;5095119;28;20046;-73
2022/02/11 07:10:44;;;;;;;10.35;6.25;;;3.60;99.90;;;;;;5094781;28;20032;-73
2022/02/11 07:13:15;;;;;;;11.80;6.65;;;3.70;99.90;;;;;;5094728;28;20044;-72
2022/02/11 07:15:43;;;;;;;9.02;5.57;;;3.70;99.90;;;;;;5095305;28;20020;-73
2022/02/11 07:18:09;;;;;;;13.90;5.68;;;3.70;99.90;;;;;;5094902;28;20023;-72
2022/02/11 07:20:35;;;;;;;9.27;5.78;;;3.70;99.90;;;;;;5094528;28;20031;-73
2022/02/11 07:23:01;;;;;;;17.05;8.10;;;3.80;99.90;;;;;;5093275;28;20012;-73
2022/02/11 07:25:27;;;;;;;20.63;10.75;;;3.70;99.90;;;;;;5095026;28;20103;-72
2022/02/11 07:27:53;;;;;;;21.73;11.13;;;3.70;99.90;;;;;;5094637;28;20016;-74
2022/02/11 07:30:20;;;;;;;20.65;9.68;;;3.50;99.90;;;;;;5094790;28;20024;-73
2022/02/11 07:32:47;;;;;;;12.63;6.50;;;3.50;99.90;;;;;;5094367;28;20035;-72
2022/02/11 07:35:12;;;;;;;14.80;8.05;;;3.60;99.90;;;;;;5094316;28;20047;-74
2022/02/11 07:37:38;;;;;;;13.48;7.57;;;3.70;99.90;;;;;;5094513;28;20393;-73
2022/02/11 07:40:05;;;;;;;14.30;8.25;;;3.70;99.90;;;;;;5094730;28;20095;-74
2022/02/11 07:42:30;;;;;;;27.42;13.32;;;3.60;99.90;;;;;;5094078;28;20070;-74
2022/02/11 07:44:57;;;;;;;9.10;4.43;;;3.50;99.90;;;;;;5094393;28;20035;-74
2022/02/11 07:47:27;;;;;;;10.10;4.40;;;3.40;99.90;;;;;;5094261;28;20366;-75
2022/02/11 07:49:54;;;;;;;15.50;4.47;;;3.30;99.90;;;;;;5092740;28;20436;-73
2022/02/11 07:52:20;;;;;;;11.10;3.85;;;3.30;99.90;;;;;;5092740;28;20020;-75
2022/02/11 07:54:45;;;;;;;13.20;3.40;;;3.20;99.90;;;;;;5093906;28;20031;-75
2022/02/11 07:57:11;;;;;;;6.13;3.47;;;3.30;99.90;;;;;;5093894;28;20035;-73
2022/02/11 07:59:37;;;;;;;6.35;3.10;;;3.30;99.90;;;;;;5094372;28;20036;-75
2022/02/11 08:02:03;;;;;;;7.28;3.30;;;3.20;99.90;;;;;;5093862;28;20099;-75
2022/02/11 08:04:29;;;;;;;12.40;4.18;;;3.20;99.90;;;;;;5093443;28;20043;-75
2022/02/11 08:06:55;;;;;;;12.55;4.47;;;3.20;99.90;;;;;;5094167;28;20111;-76
2022/02/11 08:09:21;;;;;;;12.23;4.95;;;3.00;99.90;;;;;;5093707;28;20009;-74
2022/02/11 08:11:47;;;;;;;5.20;2.85;;;3.10;99.90;;;;;;5093692;28;20389;-75
2022/02/11 08:14:12;;;;;;;6.57;3.70;;;3.10;99.90;;;;;;5093670;28;20016;-76
2022/02/11 08:16:38;;;;;;;9.52;3.78;;;3.20;99.90;;;;;;5093625;28;20024;-74
2022/02/11 08:19:06;;;;;;;12.82;5.43;;;3.20;99.90;;;;;;5093859;28;20019;-74
2022/02/11 08:21:33;;;;;;;9.48;4.47;;;3.10;99.90;;;;;;5092301;28;20031;-76
2022/02/11 08:23:59;;;;;;;11.85;6.07;;;3.10;99.90;;;;;;5093498;28;20035;-76
2022/02/11 08:26:29;;;;;;;25.20;9.70;;;3.20;99.90;;;;;;5093418;28;20039;-75
2022/02/11 08:28:55;;;;;;;29.02;16.23;;;3.10;99.90;;;;;;5092175;28;20440;-74
2022/02/11 08:31:21;;;;;;;12.63;5.80;;;3.00;99.90;;;;;;5093433;28;20438;-73
2022/02/11 08:33:49;;;;;;;34.80;18.17;;;3.00;99.90;;;;;;5093372;28;20058;-75
2022/02/11 08:36:15;;;;;;;36.80;17.33;;;3.10;99.90;;;;;;5093403;28;20024;-74
2022/02/11 08:38:41;;;;;;;14.82;5.53;;;3.20;99.90;;;;;;5093364;28;20024;-73
2022/02/11 08:41:08;;;;;;;12.18;4.35;;;3.20;99.90;;;;;;5093599;28;20080;-72
2022/02/11 08:43:33;;;;;;;10.07;5.53;;;3.30;99.90;;;;;;5093322;28;20024;-74
2022/02/11 08:45:59;;;;;;;16.33;10.90;;;3.40;99.90;;;;;;5093481;28;20028;-75
2022/02/11 08:48:25;;;;;;;13.32;8.73;;;3.40;99.90;;;;;;5093239;28;20047;-75
2022/02/11 08:50:50;;;;;;;14.10;5.57;;;3.50;99.90;;;;;;5093279;28;20047;-75
2022/02/11 08:53:17;;;;;;;11.23;5.47;;;3.60;99.90;;;;;;5092973;28;20032;-75
2022/02/11 08:55:43;;;;;;;9.65;5.35;;;3.50;99.90;;;;;;5091880;28;20021;-75
2022/02/11 08:58:09;;;;;;;10.80;5.15;;;3.70;99.90;;;;;;5093076;28;20069;-74
2022/02/11 09:00:35;;;;;;;10.50;6.43;;;3.60;99.90;;;;;;5093386;28;20028;-75
2022/02/11 09:03:00;;;;;;;13.18;6.47;;;3.70;99.90;;;;;;5093118;28;20064;-74
2022/02/11 09:05:27;;;;;;;13.95;6.10;;;3.90;99.90;;;;;;5093140;28;20020;-79
2022/02/11 09:07:58;;;;;;;14.57;5.45;;;4.10;99.90;;;;;;5092996;28;20020;-75
2022/02/11 09:10:26;;;;;;;19.52;10.15;;;4.50;99.90;;;;;;5093324;28;20020;-79
2022/02/11 09:12:53;;;;;;;18.65;11.15;;;5.20;99.90;;;;;;5093016;28;20027;-76
2022/02/11 09:15:19;;;;;;;11.82;5.22;;;5.70;99.90;;;;;;5093815;28;20481;-78
2022/02/11 09:17:45;;;;;;;14.45;7.95;;;6.20;99.90;;;;;;5095701;28;20020;-78
2022/02/11 09:20:11;;;;;;;21.77;16.35;;;6.60;99.90;;;;;;5097127;28;20038;-76
2022/02/11 09:22:37;;;;;;;23.63;21.05;;;7.20;99.90;;;;;;5096909;28;20059;-77
2022/02/11 09:25:03;;;;;;;17.35;12.23;;;7.60;99.90;;;;;;5097161;28;20101;-76
2022/02/11 09:27:29;;;;;;;14.65;9.80;;;7.80;99.90;;;;;;5096721;28;20020;-78
2022/02/11 09:29:55;;;;;;;16.58;12.05;;;8.20;99.90;;;;;;5096735;28;20020;-76
2022/02/11 09:32:20;;;;;;;11.18;5.30;;;8.50;99.90;;;;;;5096942;28;20023;-75
2022/02/11 09:34:46;;;;;;;10.00;5.32;;;8.70;99.90;;;;;;5096617;28;20050;-74
2022/02/11 09:37:12;;;;;;;9.85;5.10;;;8.90;99.90;;;;;;5096565;28;20016;-75
2022/02/11 09:39:38;;;;;;;9.52;4.90;;;9.00;99.90;;;;;;5096519;28;20486;-75
2022/02/11 09:42:04;;;;;;;12.93;5.32;;;8.80;99.90;;;;;;5096460;28;20031;-74
2022/02/11 09:44:32;;;;;;;10.05;5.60;;;8.60;99.90;;;;;;5096445;28;20427;-75
2022/02/11 09:46:59;;;;;;;15.57;7.13;;;8.60;99.90;;;;;;5096311;28;20044;-76
2022/02/11 09:49:24;;;;;;;11.65;5.72;;;8.70;99.90;;;;;;5096923;28;20050;-75
2022/02/11 09:51:53;;;;;;;14.07;6.07;;;8.70;99.90;;;;;;5096338;28;20021;-75
2022/02/11 09:54:21;;;;;;;8.68;5.35;;;8.70;99.90;;;;;;5096509;28;20020;-76
2022/02/11 09:56:49;;;;;;;13.38;5.78;;;8.70;99.90;;;;;;5096256;28;20028;-75
2022/02/11 09:59:15;;;;;;;20.02;7.93;;;8.80;99.90;;;;;;5096199;28;20158;-74
2022/02/11 10:01:43;;;;;;;13.38;8.02;;;8.80;99.90;;;;;;5096084;28;20073;-75
2022/02/11 10:04:10;;;;;;;11.70;6.10;;;8.90;99.90;;;;;;5095970;28;20044;-75
2022/02/11 10:06:37;;;;;;;14.02;5.47;;;8.90;99.90;;;;;;5096286;28;20046;-74
2022/02/11 10:09:04;;;;;;;9.48;4.60;;;9.10;99.90;;;;;;5096590;28;20465;-75
2022/02/11 10:11:30;;;;;;;10.65;4.80;;;9.30;99.90;;;;;;5096251;28;20417;-76
2022/02/11 10:14:15;;;;;;;12.05;5.05;;;9.40;99.90;;;;;;5095939;28;20028;-75
2022/02/11 10:16:52;;;;;;;12.38;5.57;;;9.50;99.90;;;;;;5095895;28;20036;-75
2022/02/11 10:19:37;;;;;;;9.60;4.88;;;9.40;99.90;;;;;;5096082;28;20488;-75
2022/02/11 10:22:15;;;;;;;11.55;5.00;;;9.30;99.90;;;;;;5096039;28;20419;-76
2022/02/11 10:24:42;;;;;;;12.07;5.60;;;9.20;99.90;;;;;;5096037;28;20024;-75
2022/02/11 10:27:18;;;;;;;14.82;8.45;;;9.10;99.90;;;;;;5094137;28;20049;-75
2022/02/11 10:29:44;;;;;;;11.40;7.57;;;9.00;99.90;;;;;;5095850;28;20078;-75
2022/02/11 10:32:09;;;;;;;12.68;6.82;;;8.90;99.90;;;;;;5095582;28;20024;-76
2022/02/11 10:34:39;;;;;;;11.43;6.45;;;8.80;99.90;;;;;;5095770;28;20478;-75
2022/02/11 10:37:08;;;;;;;16.05;7.13;;;8.70;99.90;;;;;;5095495;28;20024;-75
2022/02/11 10:39:36;;;;;;;17.60;6.33;;;8.60;99.90;;;;;;5095716;28;20465;-75
2022/02/11 10:42:08;;;;;;;11.82;6.20;;;8.60;99.90;;;;;;5095336;28;20035;-75
2022/02/11 10:44:44;;;;;;;12.93;5.28;;;8.70;99.90;;;;;;5095922;28;20027;-74
2022/02/11 10:47:10;;;;;;;13.68;4.93;;;8.60;99.90;;;;;;5095528;28;20020;-75
2022/02/11 10:49:47;;;;;;;9.30;4.93;;;8.60;99.90;;;;;;5095467;28;20470;-75
2022/02/11 10:52:20;;;;;;;10.43;4.35;;;8.70;99.90;;;;;;5095505;28;20020;-75
2022/02/11 10:54:49;;;;;;;14.05;5.53;;;8.70;99.90;;;;;;5095333;28;20020;-75
2022/02/11 10:57:16;;;;;;;12.27;5.40;;;8.70;99.90;;;;;;5095639;28;20376;-75
2022/02/11 10:59:45;;;;;;;13.50;4.75;;;8.70;99.90;;;;;;5095310;28;20362;-74
2022/02/11 11:02:15;;;;;;;14.13;5.85;;;8.80;99.90;;;;;;5095215;28;20028;-75
2022/02/11 11:04:41;;;;;;;14.52;5.47;;;8.80;99.90;;;;;;5094619;28;20107;-76
2022/02/11 11:07:07;;;;;;;11.88;4.80;;;8.80;99.90;;;;;;5094787;28;20058;-76
2022/02/11 11:09:35;;;;;;;10.35;4.53;;;8.80;99.90;;;;;;5095109;28;20028;-76
2022/02/11 11:12:02;;;;;;;10.82;4.75;;;8.80;99.90;;;;;;5094780;28;20016;-74
2022/02/11 11:14:28;;;;;;;14.18;5.72;;;8.80;99.90;;;;;;5093445;28;20386;-75
2022/02/11 11:16:58;;;;;;;11.07;4.90;;;8.80;99.90;;;;;;5094663;28;20109;-74
2022/02/11 11:19:26;;;;;;;13.00;4.55;;;8.80;99.90;;;;;;5094705;28;20035;-75
2022/02/11 11:22:11;;;;;;;15.65;5.30;;;8.80;99.90;;;;;;5094511;28;20028;-75
2022/02/11 11:24:52;;;;;;;10.90;3.53;;;8.80;99.90;;;;;;5094847;28;20095;-76
2022/02/11 11:27:51;;;;;;;17.45;10.30;;;8.70;99.90;;;;;;5094638;28;20097;-76
2022/02/11 11:30:27;;;;;;;10.75;4.05;;;8.80;99.90;;;;;;5050540;28;20504;-75
2022/02/11 11:33:05;;;;;;;18.33;9.10;;;8.70;99.90;;;;;;5094983;28;20020;-75
2022/02/11 11:36:00;;;;;;;14.27;3.45;;;8.70;99.90;;;;;;5094281;28;20054;-75
2022/02/11 11:38:53;;;;;;;11.02;5.55;;;8.70;99.90;;;;;;5092207;28;20024;-75
2022/02/11 11:41:19;;;;;;;10.27;3.53;;;8.70;99.90;;;;;;5094457;28;20020;-75
2022/02/11 11:43:50;;;;;;;16.08;6.32;;;8.60;99.90;;;;;;5094206;28;20050;-74
2022/02/11 11:46:16;;;;;;;15.88;7.13;;;8.60;99.90;;;;;;5094681;28;20374;-75
2022/02/11 11:49:05;;;;;;;13.55;5.72;;;8.60;99.90;;;;;;5094084;28;20027;-74
2022/02/11 11:51:34;;;;;;;9.32;3.78;;;8.60;99.90;;;;;;5083591;28;20053;-75
2022/02/11 11:54:18;;;;;;;12.23;3.15;;;8.70;99.90;;;;;;5094185;28;20024;-74
2022/02/11 11:56:53;;;;;;;10.52;2.72;;;8.70;99.90;;;;;;5094517;28;20020;-75
2022/02/11 11:59:40;;;;;;;9.55;3.30;;;8.70;99.90;;;;;;5093904;28;20056;-74
2022/02/11 12:02:17;;;;;;;10.05;2.33;;;8.70;99.90;;;;;;5094401;28;20366;-75
2022/02/11 12:04:43;;;;;;;14.02;3.03;;;8.70;99.90;;;;;;5093530;28;20100;-74
2022/02/11 12:07:14;;;;;;;11.30;3.38;;;8.60;99.90;;;;;;5093974;28;20020;-74
2022/02/11 12:09:42;;;;;;;11.65;3.13;;;8.60;99.90;;;;;;5094334;28;20369;-75
2022/02/11 12:12:09;;;;;;;9.50;3.28;;;8.70;99.90;;;;;;5094024;28;20515;-74
2022/02/11 12:14:38;;;;;;;18.70;2.92;;;8.80;99.90;;;;;;5093711;28;20044;-75
2022/02/11 12:17:05;;;;;;;17.25;3.72;;;8.90;99.90;;;;;;5093897;28;20090;-74
2022/02/11 12:19:32;;;;;;;12.98;4.00;;;8.90;99.90;;;;;;5093867;28;20039;-75
2022/02/11 12:21:59;;;;;;;11.52;3.53;;;8.90;99.90;;;;;;5093831;28;20024;-74
2022/02/11 12:27:20;;;;;;;8.90;2.78;;;8.80;99.90;;;;;;5093892;28;20031;-74
2022/02/11 12:29:54;;;;;;;10.10;2.75;;;8.90;99.90;;;;;;5093748;28;20024;-75
2022/02/11 12:32:24;;;;;;;15.75;3.33;;;8.90;99.90;;;;;;5093669;28;20496;-74
2022/02/11 12:34:55;;;;;;;10.15;3.08;;;9.00;99.90;;;;;;5093966;28;20369;-75
2022/02/11 12:37:21;;;;;;;11.50;3.30;;;8.90;99.90;;;;;;5094026;28;20067;-76
2022/02/11 12:39:58;;;;;;;9.95;3.55;;;9.00;99.90;;;;;;5093369;28;20032;-75
2022/02/11 12:42:25;;;;;;;11.05;3.47;;;9.00;99.90;;;;;;5093362;28;20446;-74
2022/02/11 12:44:51;;;;;;;7.18;2.97;;;9.10;99.90;;;;;;5093291;28;20424;-74
2022/02/11 12:47:16;;;;;;;7.80;2.75;;;9.10;99.90;;;;;;5093575;28;20469;-75
2022/02/11 12:49:44;;;;;;;14.60;4.47;;;9.10;99.90;;;;;;5093518;28;20121;-75
2022/02/11 12:52:15;;;;;;;7.82;3.78;;;9.10;99.90;;;;;;5097588;28;20016;-75
2022/02/11 12:55:16;;;;;;;6.65;3.13;;;9.10;99.90;;;;;;5097586;28;20466;-75
2022/02/11 12:57:52;;;;;;;12.18;4.93;;;9.10;99.90;;;;;;5097057;28;20036;-75
2022/02/11 13:00:24;;;;;;;7.80;3.97;;;9.10;99.90;;;;;;5097659;28;20487;-75
2022/02/11 13:02:51;;;;;;;10.75;3.60;;;9.10;99.90;;;;;;5097374;28;20024;-76
2022/02/11 13:05:21;;;;;;;11.80;3.83;;;9.20;99.90;;;;;;5097548;28;20024;-75
2022/02/11 13:07:49;;;;;;;16.20;7.07;;;9.20;99.90;;;;;;5097441;28;20020;-75
2022/02/11 13:10:26;;;;;;;12.57;4.30;;;9.20;99.90;;;;;;5095863;28;20258;-75
2022/02/11 13:13:08;;;;;;;9.20;3.70;;;9.20;99.90;;;;;;5095582;28;20078;-74
2022/02/11 13:15:36;;;;;;;13.75;4.80;;;9.10;99.90;;;;;;5097411;28;20020;-75
2022/02/11 13:18:08;;;;;;;12.07;3.90;;;9.10;99.90;;;;;;5097272;28;20024;-75
2022/02/11 13:20:42;;;;;;;10.25;3.42;;;9.20;99.90;;;;;;5097507;28;20422;-75
2022/02/11 13:23:13;;;;;;;8.63;3.55;;;9.30;99.90;;;;;;5097180;28;20032;-74
2022/02/11 13:25:39;;;;;;;;;;;9.30;99.90;;;;;;5097549;28;20117;-74
2022/02/11 13:28:07;;;;;;;8.75;4.10;;;9.40;99.90;;;;;;5096775;28;19916;-75
2022/02/11 13:30:34;;;;;;;11.43;3.72;;;9.40;99.90;;;;;;5096788;28;20375;-75
2022/02/11 13:33:17;;;;;;;8.27;3.08;;;9.40;99.90;;;;;;5096757;28;20020;-75
2022/02/11 13:35:43;;;;;;;10.85;3.53;;;9.50;99.90;;;;;;5097285;28;20028;-74
2022/02/11 13:38:09;;;;;;;9.38;3.67;;;9.50;99.90;;;;;;5096901;28;20103;-74
2022/02/11 13:40:35;;;;;;;7.28;2.80;;;9.70;99.90;;;;;;5096597;28;20122;-74
2022/02/11 13:43:03;;;;;;;8.50;2.40;;;9.80;99.90;;;;;;5096474;28;20055;-76
2022/02/11 13:45:47;;;;;;;7.07;2.53;;;9.80;99.90;;;;;;5096706;28;20429;-76
2022/02/11 13:48:13;;;;;;;6.63;2.90;;;9.80;99.90;;;;;;5096406;28;20024;-75
2022/02/11 13:51:11;;;;;;;7.70;2.40;;;9.70;99.90;;;;;;5096389;28;20020;-75
2022/02/11 13:53:48;;;;;;;12.25;3.03;;;9.80;99.90;;;;;;5094791;28;20063;-75
2022/02/11 13:56:38;;;;;;;6.80;2.30;;;9.90;99.90;;;;;;5094994;28;20058;-75
2022/02/11 13:59:03;;;;;;;6.40;2.58;;;9.90;99.90;;;;;;5096875;28;20496;-74
2022/02/11 14:01:31;;;;;;;9.63;2.63;;;9.80;99.90;;;;;;5095618;28;20028;-75
2022/02/11 14:04:04;;;;;;;11.05;2.22;;;9.70;99.90;;;;;;5096124;28;20044;-75
2022/02/11 14:06:37;;;;;;;10.48;2.42;;;9.60;99.90;;;;;;5096018;28;20027;-76
2022/02/11 14:09:25;;;;;;;9.73;2.40;;;9.40;99.90;;;;;;5096372;28;20012;-75
2022/02/11 14:11:50;;;;;;;8.55;2.78;;;9.50;99.90;;;;;;5096336;28;20138;-74
2022/02/11 14:14:21;;;;;;;6.70;2.67;;;9.50;99.90;;;;;;5095933;28;20066;-75
2022/02/11 14:16:47;;;;;;;;;;;9.50;99.90;;;;;;5096381;28;20024;-75
2022/02/11 14:19:18;;;;;;;8.82;2.28;;;9.50;99.90;;;;;;5096129;28;19983;-75
2022/02/11 14:21:44;;;;;;;;;;;9.40;99.90;;;;;;5096788;28;20027;-75
2022/02/11 14:24:10;;;;;;;6.28;2.20;;;9.40;99.90;;;;;;5095790;28;19904;-75
2022/02/11 14:26:38;;;;;;;6.78;2.40;;;9.40;99.90;;;;;;5095905;28;20492;-75
2022/02/11 14:29:04;;;;;;;5.35;2.17;;;9.50;99.90;;;;;;5095654;28;20091;-75
2022/02/11 14:31:32;;;;;;;5.97;2.38;;;9.40;99.90;;;;;;5095553;28;20028;-75
2022/02/11 14:33:58;;;;;;;11.70;3.03;;;9.40;99.90;;;;;;5095574;28;20020;-75
2022/02/11 14:36:23;;;;;;;6.93;2.58;;;9.50;99.90;;;;;;5095511;28;20051;-75
2022/02/11 14:38:50;;;;;;;11.73;2.53;;;9.50;99.90;;;;;;5095455;28;20028;-75
2022/02/11 14:44:00;;;;;;;5.93;2.55;;;9.60;99.90;;;;;;5095427;28;20035;-76
2022/02/11 14:46:26;;;;;;;7.97;2.53;;;9.70;99.90;;;;;;5095212;28;20071;-75
2022/02/11 14:48:53;;;;;;;10.27;2.30;;;9.70;99.90;;;;;;5095832;28;20020;-75
2022/02/11 14:51:19;;;;;;;7.80;2.20;;;9.60;99.90;;;;;;5095442;28;20362;-75
2022/02/11 14:53:45;;;;;;;7.80;2.55;;;9.80;99.90;;;;;;5095105;28;20027;-75
2022/02/11 14:56:10;;;;;;;9.82;3.05;;;9.90;99.90;;;;;;5095339;28;20028;-76
2022/02/11 14:58:36;;;;;;;6.78;2.53;;;9.80;99.90;;;;;;5095346;28;20024;-75
2022/02/11 15:01:05;;;;;;;6.38;2.42;;;9.80;99.90;;;;;;5093687;28;20035;-75
2022/02/11 15:03:32;;;;;;;6.85;2.35;;;9.80;99.90;;;;;;5094751;28;20044;-75
2022/02/11 15:05:57;;;;;;;11.65;2.78;;;9.80;99.90;;;;;;5094962;28;20024;-75
2022/02/11 15:08:23;;;;;;;11.70;2.88;;;9.90;99.90;;;;;;5094863;28;20046;-75
2022/02/11 15:10:48;;;;;;;12.32;2.67;;;9.90;99.90;;;;;;5095093;28;20493;-75
2022/02/11 15:13:14;;;;;;;8.77;2.72;;;9.90;99.90;;;;;;5094143;28;20111;-74
2022/02/11 15:15:41;;;;;;;6.95;2.50;;;10.00;99.90;;;;;;5094702;28;20020;-75
2022/02/11 15:18:08;;;;;;;5.85;2.55;;;10.00;99.90;;;;;;5094981;28;20043;-74
2022/02/11 15:20:38;;;;;;;7.88;2.55;;;9.90;99.90;;;;;;5094651;28;20385;-74
2022/02/11 15:23:04;;;;;;;9.30;3.42;;;9.90;99.90;;;;;;5094624;28;20478;-76
2022/02/11 15:25:30;;;;;;;6.55;2.70;;;9.90;99.90;;;;;;5094551;28;20065;-75
2022/02/11 15:27:56;;;;;;;7.82;2.85;;;9.90;99.90;;;;;;5094402;28;20419;-74
2022/02/11 15:30:22;;;;;;;8.02;2.60;;;9.80;99.90;;;;;;5094467;28;20016;-74
2022/02/11 15:32:48;;;;;;;6.15;2.35;;;9.90;99.90;;;;;;5094403;28;20020;-75
2022/02/11 15:35:14;;;;;;;5.32;2.38;;;9.90;99.90;;;;;;5094389;28;20156;-76
2022/02/11 15:37:39;;;;;;;7.82;2.70;;;9.90;99.90;;;;;;5092941;28;20032;-75
2022/02/11 15:40:06;;;;;;;10.13;2.70;;;9.90;99.90;;;;;;5093017;28;20027;-74
2022/02/11 15:42:33;;;;;;;10.70;3.00;;;9.90;99.90;;;;;;5094834;28;20085;-75
2022/02/11 15:44:59;;;;;;;8.45;3.13;;;9.90;99.90;;;;;;5094178;28;20102;-75
2022/02/11 15:47:25;;;;;;;8.05;2.65;;;9.80;99.90;;;;;;5094122;28;20103;-75
2022/02/11 15:49:52;;;;;;;8.52;3.15;;;9.80;99.90;;;;;;5094739;28;20026;-75
2022/02/11 15:52:18;;;;;;;7.90;3.65;;;9.70;99.90;;;;;;5094377;28;20073;-75
2022/02/11 15:54:44;;;;;;;4.30;2.42;;;9.80;99.90;;;;;;5093961;28;20012;-74
2022/02/11 15:57:10;;;;;;;13.77;2.83;;;9.80;99.90;;;;;;5094014;28;20031;-75
2022/02/11 15:59:36;;;;;;;7.72;2.60;;;9.90;99.90;;;;;;5094170;28;20020;-76
2022/02/11 16:02:02;;;;;;;9.50;2.88;;;9.80;99.90;;;;;;5093938;28;20020;-74
2022/02/11 16:04:32;;;;;;;5.47;2.60;;;9.70;99.90;;;;;;5093643;28;20079;-74
2022/02/11 16:06:57;;;;;;;6.10;2.50;;;9.70;99.90;;;;;;5094019;28;20028;-75
2022/02/11 16:09:23;;;;;;;6.57;2.60;;;9.60;99.90;;;;;;5094040;28;20028;-74
2022/02/11 16:11:49;;;;;;;7.80;2.65;;;9.70;99.90;;;;;;5093997;28;20031;-74
2022/02/11 16:14:16;;;;;;;8.77;3.40;;;9.60;99.90;;;;;;5094000;28;20386;-75
2022/02/11 16:16:43;;;;;;;12.55;3.40;;;9.60;99.90;;;;;;5092394;28;20028;-75
2022/02/11 16:19:09;;;;;;;11.10;3.67;;;9.70;99.90;;;;;;5093616;28;20496;-74
2022/02/11 16:21:35;;;;;;;6.43;2.70;;;9.70;99.90;;;;;;5093609;28;20012;-74
2022/02/11 16:24:00;;;;;;;7.55;2.72;;;9.80;99.90;;;;;;5093692;28;20028;-75
2022/02/11 16:26:26;;;;;;;8.77;3.10;;;9.80;99.90;;;;;;5094021;28;20385;-75
2022/02/11 16:28:52;;;;;;;7.28;2.53;;;9.80;99.90;;;;;;5093754;28;20024;-74
2022/02/11 16:31:19;;;;;;;6.75;2.75;;;9.80;99.90;;;;;;5093547;28;20027;-75
2022/02/11 16:33:45;;;;;;;7.53;2.53;;;9.60;99.90;;;;;;5093419;28;20473;-74
2022/02/11 16:36:11;;;;;;;9.07;2.70;;;9.60;99.90;;;;;;5093388;28;20016;-75
2022/02/11 16:38:44;;;;;;;8.27;2.70;;;9.60;99.90;;;;;;5093369;28;20082;-75
2022/02/11 16:41:10;;;;;;;7.47;2.63;;;9.50;99.90;;;;;;5093389;28;20016;-74
2022/02/11 16:43:36;;;;;;;7.47;2.65;;;9.50;99.90;;;;;;5093333;28;20095;-74